createdAt,value
2022-10-01T00:00:04.547Z,100263.31
2022-10-01T00:02:30.898Z,100268.50
2022-10-01T00:04:57.576Z,100190.91
2022-10-01T00:07:24.105Z,100169.16
2022-10-01T00:09:50.439Z,100221.03
2022-10-01T00:12:16.846Z,100274.66
2022-10-01T00:14:44.391Z,100282.63
2022-10-01T00:17:10.703Z,100263.31
2022-10-01T00:19:37.018Z,100270.91
2022-10-01T00:22:03.372Z,100269.31
2022-10-01T00:24:29.675Z,100264.25
2022-10-01T00:26:56.101Z,100184.81
2022-10-01T00:29:22.414Z,100236.78
2022-10-01T00:31:49.030Z,100244.28
2022-10-01T00:34:15.752Z,100200.28
2022-10-01T00:36:42.183Z,100175.53
2022-10-01T00:39:10.413Z,100220.06
2022-10-01T00:41:37.092Z,100213.06
2022-10-01T00:44:26.650Z,100204.44
2022-10-01T00:46:54.867Z,100204.44
2022-10-01T00:49:25.792Z,100147.25
2022-10-01T00:51:58.394Z,100167.97
2022-10-01T00:55:09.341Z,100160.94
2022-10-01T00:57:35.702Z,100154.84
2022-10-01T01:00:07.249Z,100144.06
2022-10-01T01:02:33.670Z,100054.47
2022-10-01T01:05:00.597Z,100103.88
2022-10-01T01:07:29.213Z,100142.00
2022-10-01T01:09:56.139Z,100137.69
2022-10-01T01:13:01.666Z,100128.22
2022-10-01T01:15:55.668Z,100127.78
2022-10-01T01:18:50.438Z,100077.78
2022-10-01T01:21:35.723Z,100118.03
2022-10-01T01:24:10.273Z,100117.28
2022-10-01T01:26:50.272Z,100112.13
2022-10-01T01:29:52.948Z,100113.16
2022-10-01T01:32:27.954Z,100100.03
2022-10-01T01:34:56.803Z,100057.41
2022-10-01T01:37:27.461Z,99898.63
2022-10-01T01:39:56.922Z,100058.47
2022-10-01T01:42:36.996Z,100041.59
2022-10-01T01:45:09.722Z,100027.63
2022-10-01T01:47:36.857Z,100021.75
2022-10-01T01:50:04.693Z,99969.09
2022-10-01T01:52:32.639Z,99903.94
2022-10-01T01:54:59.206Z,99990.50
2022-10-01T01:57:26.279Z,99721.88
2022-10-01T01:59:54.285Z,99978.81
2022-10-01T02:02:29.747Z,99852.69
2022-10-01T02:05:01.987Z,99929.84
2022-10-01T02:07:37.163Z,99972.34
2022-10-01T02:10:18.841Z,99986.22
2022-10-01T02:13:22.070Z,99988.91
2022-10-01T02:16:04.266Z,99991.94
2022-10-01T02:18:48.030Z,99759.81
2022-10-01T02:21:28.565Z,99987.78
2022-10-01T02:23:59.084Z,99990.59
2022-10-01T02:26:28.204Z,100000.34
2022-10-01T02:28:58.874Z,99991.72
2022-10-01T02:31:27.660Z,99945.78
2022-10-01T02:33:56.437Z,100011.69
2022-10-01T02:36:25.855Z,99957.66
2022-10-01T02:38:55.745Z,100020.31
2022-10-01T02:41:33.981Z,100009.91
2022-10-01T02:44:23.247Z,99994.47
2022-10-01T02:47:12.197Z,99892.34
2022-10-01T02:49:41.289Z,99876.50
2022-10-01T02:52:26.174Z,99818.34
2022-10-01T02:55:03.847Z,99890.41
2022-10-01T02:57:30.348Z,99891.47
2022-10-01T02:59:59.883Z,99912.31
2022-10-01T03:02:28.173Z,99907.19
2022-10-01T03:04:57.150Z,99897.44
2022-10-01T03:07:27.866Z,99882.47
2022-10-01T03:09:54.526Z,99888.53
2022-10-01T03:12:21.222Z,99893.03
2022-10-01T03:14:47.654Z,99910.56
2022-10-01T03:17:15.195Z,99891.47
2022-10-01T03:19:42.449Z,99809.06
2022-10-01T03:22:11.767Z,99843.66
2022-10-01T03:24:38.068Z,99878.03
2022-10-01T03:27:04.525Z,99816.81
2022-10-01T03:29:30.995Z,99868.69
2022-10-01T03:31:57.286Z,99862.63
2022-10-01T03:34:23.779Z,99757.19
2022-10-01T03:36:52.090Z,99836.09
2022-10-01T03:39:18.793Z,99747.53
2022-10-01T03:41:45.206Z,99848.47
2022-10-01T03:44:11.562Z,99829.28
2022-10-01T03:46:38.030Z,99831.97
2022-10-01T03:49:04.554Z,99800.56
2022-10-01T03:51:31.592Z,99794.88
2022-10-01T03:53:58.422Z,99802.00
2022-10-01T03:56:25.111Z,99785.31
2022-10-01T03:58:51.674Z,99777.56
2022-10-01T04:01:18.165Z,99791.50
2022-10-01T04:03:44.509Z,99798.63
2022-10-01T04:06:11.324Z,99791.41
2022-10-01T04:08:38.626Z,99808.81
2022-10-01T04:11:06.237Z,99760.44
2022-10-01T04:13:34.169Z,99786.84
2022-10-01T04:16:01.766Z,99652.09
2022-10-01T04:18:28.418Z,99686.66
2022-10-01T04:20:54.765Z,99814.56
2022-10-01T04:23:23.205Z,99801.59
2022-10-01T04:25:49.874Z,99766.78
2022-10-01T04:28:16.789Z,99797.03
2022-10-01T04:30:45.001Z,99809.31
2022-10-01T04:33:16.497Z,99815.38
2022-10-01T04:35:43.457Z,99811.72
2022-10-01T04:38:14.447Z,99831.78
2022-10-01T04:40:41.285Z,99834.09
2022-10-01T04:43:10.913Z,99742.59
2022-10-01T04:45:37.853Z,99815.19
2022-10-01T04:48:05.147Z,99779.00
2022-10-01T04:50:32.121Z,99715.56
2022-10-01T04:52:58.422Z,99805.00
2022-10-01T04:55:24.883Z,99801.47
2022-10-01T04:57:51.281Z,99781.88
2022-10-01T05:00:21.673Z,99768.00
2022-10-01T05:02:49.514Z,99728.09
2022-10-01T05:05:17.884Z,99762.13
2022-10-01T05:07:44.682Z,99775.66
2022-10-01T05:10:17.086Z,99718.00
2022-10-01T05:12:43.785Z,99791.88
2022-10-01T05:15:10.836Z,99791.66
2022-10-01T05:17:37.158Z,99792.59
2022-10-01T05:20:06.578Z,99789.03
2022-10-01T05:22:33.223Z,99778.56
2022-10-01T05:25:00.298Z,99780.13
2022-10-01T05:27:27.615Z,99727.81
2022-10-01T05:29:54.038Z,99748.41
2022-10-01T05:32:20.373Z,99783.38
2022-10-01T05:34:49.976Z,99782.41
2022-10-01T05:37:19.753Z,99789.38
2022-10-01T05:39:46.090Z,99788.22
2022-10-01T05:42:12.412Z,99715.97
2022-10-01T05:44:39.930Z,99780.44
2022-10-01T05:47:07.093Z,99788.94
2022-10-01T05:49:33.866Z,99791.66
2022-10-01T05:52:00.903Z,99723.50
2022-10-01T05:54:29.496Z,99786.31
2022-10-01T05:56:57.011Z,99795.88
2022-10-01T05:59:28.460Z,99805.31
2022-10-01T06:01:57.954Z,99731.47
2022-10-01T06:04:24.407Z,99755.22
2022-10-01T06:06:50.823Z,99761.53
2022-10-01T06:09:17.313Z,99723.50
2022-10-01T06:11:43.694Z,99703.81
2022-10-01T06:14:10.022Z,99724.56
2022-10-01T06:16:36.378Z,99793.03
2022-10-01T06:19:02.896Z,99741.69
2022-10-01T06:21:30.274Z,99697.59
2022-10-01T06:23:56.607Z,99803.50
2022-10-01T06:26:23.200Z,99757.31
2022-10-01T06:28:50.383Z,99823.84
2022-10-01T06:31:18.137Z,99830.81
2022-10-01T06:33:44.584Z,99834.16
2022-10-01T06:36:10.984Z,99809.97
2022-10-01T06:38:37.389Z,99811.97
2022-10-01T06:41:04.894Z,99828.66
2022-10-01T06:43:32.583Z,99806.59
2022-10-01T06:46:04.086Z,99807.53
2022-10-01T06:48:31.409Z,99737.31
2022-10-01T06:50:58.804Z,99827.81
2022-10-01T06:53:27.500Z,99826.53
2022-10-01T06:55:54.211Z,99833.34
2022-10-01T06:58:22.735Z,99826.28
2022-10-01T07:00:50.386Z,99827.03
2022-10-01T07:03:21.580Z,99826.81
2022-10-01T07:05:49.901Z,99831.97
2022-10-01T07:08:17.633Z,99850.47
2022-10-01T07:10:45.403Z,99843.53
2022-10-01T07:13:20.847Z,99842.94
2022-10-01T07:15:47.182Z,99784.72
2022-10-01T07:18:14.024Z,99856.22
2022-10-01T07:20:41.204Z,99858.03
2022-10-01T07:23:14.050Z,99843.03
2022-10-01T07:25:41.744Z,99769.00
2022-10-01T07:28:16.090Z,99845.94
2022-10-01T07:30:47.517Z,99855.06
2022-10-01T07:33:17.818Z,99855.78
2022-10-01T07:35:44.173Z,99830.50
2022-10-01T07:38:10.525Z,99776.69
2022-10-01T07:40:36.884Z,99611.81
2022-10-01T07:43:03.278Z,99804.44
2022-10-01T07:45:29.691Z,99764.50
2022-10-01T07:48:01.391Z,99777.31
2022-10-01T07:50:30.415Z,99864.31
2022-10-01T07:52:58.138Z,99859.22
2022-10-01T07:55:26.879Z,99801.16
2022-10-01T07:57:58.981Z,99876.09
2022-10-01T08:00:29.526Z,99864.56
2022-10-01T08:02:56.373Z,99828.75
2022-10-01T08:05:25.667Z,99878.88
2022-10-01T08:07:52.296Z,99814.22
2022-10-01T08:10:20.212Z,99891.84
2022-10-01T08:12:46.715Z,99892.22
2022-10-01T08:15:15.986Z,99904.19
2022-10-01T08:17:42.966Z,99872.41
2022-10-01T08:20:12.923Z,99860.19
2022-10-01T08:22:42.066Z,99892.53
2022-10-01T08:25:08.731Z,99904.66
2022-10-01T08:27:35.326Z,99914.41
2022-10-01T08:30:01.617Z,99834.69
2022-10-01T08:32:28.161Z,99852.44
2022-10-01T08:34:57.345Z,99874.41
2022-10-01T08:37:28.278Z,99918.16
2022-10-01T08:39:56.198Z,99805.72
2022-10-01T08:42:25.538Z,99918.53
2022-10-01T08:44:52.721Z,99883.88
2022-10-01T08:47:33.830Z,99904.50
2022-10-01T08:50:05.850Z,99919.38
2022-10-01T08:52:40.123Z,99918.88
2022-10-01T08:55:10.565Z,99937.59
2022-10-01T08:57:47.078Z,99916.47
2022-10-01T09:00:15.362Z,99766.53
2022-10-01T09:02:43.465Z,99936.63
2022-10-01T09:05:24.777Z,99888.94
2022-10-01T09:07:53.908Z,99935.63
2022-10-01T09:10:29.424Z,99933.88
2022-10-01T09:13:14.305Z,99930.41
2022-10-01T09:16:25.333Z,99953.47
2022-10-01T09:19:16.990Z,99955.66
2022-10-01T09:22:04.317Z,99953.88
2022-10-01T09:24:44.440Z,99955.44
2022-10-01T09:27:17.636Z,99963.00
2022-10-01T09:30:07.345Z,99962.63
2022-10-01T09:32:41.589Z,99883.78
2022-10-01T09:35:20.914Z,99950.72
2022-10-01T09:38:11.967Z,99958.63
2022-10-01T09:40:54.992Z,99958.97
2022-10-01T09:43:23.800Z,99961.25
2022-10-01T09:45:51.596Z,99965.44
2022-10-01T09:48:48.239Z,99973.50
2022-10-01T09:51:40.671Z,99989.34
2022-10-01T09:54:33.879Z,99968.63
2022-10-01T09:57:13.912Z,99982.19
2022-10-01T10:00:02.590Z,99918.53
2022-10-01T10:02:33.203Z,99925.78
2022-10-01T10:05:05.533Z,99969.91
2022-10-01T10:07:34.668Z,99966.13
2022-10-01T10:10:09.931Z,99962.56
2022-10-01T10:12:36.349Z,99977.13
2022-10-01T10:15:16.415Z,99983.19
2022-10-01T10:17:46.297Z,99940.66
2022-10-01T10:20:32.981Z,99979.13
2022-10-01T10:23:07.102Z,99914.72
2022-10-01T10:25:33.583Z,99964.16
2022-10-01T10:28:02.383Z,99918.09
2022-10-01T10:30:29.440Z,99992.59
2022-10-01T10:33:04.537Z,100005.06
2022-10-01T10:35:31.732Z,100001.38
2022-10-01T10:37:59.118Z,99975.03
2022-10-01T10:40:40.418Z,99996.41
2022-10-01T10:43:22.761Z,99968.06
2022-10-01T10:45:55.951Z,99960.53
2022-10-01T10:48:28.894Z,99974.53
2022-10-01T10:51:01.700Z,99924.47
2022-10-01T10:53:31.758Z,100001.97
2022-10-01T10:56:01.019Z,100019.41
2022-10-01T10:58:30.645Z,100036.03
2022-10-01T11:01:12.037Z,100033.13
2022-10-01T11:03:44.327Z,99957.91
2022-10-01T11:06:14.689Z,99989.41
2022-10-01T11:08:42.702Z,100001.78
2022-10-01T11:11:33.809Z,100038.63
2022-10-01T11:14:28.365Z,99842.66
2022-10-01T11:17:07.122Z,100033.91
2022-10-01T11:19:42.373Z,100033.38
2022-10-01T11:22:27.405Z,100038.50
2022-10-01T11:25:03.557Z,100044.25
2022-10-01T11:28:05.687Z,100043.56
2022-10-01T11:30:35.095Z,100050.66
2022-10-01T11:33:03.428Z,100059.19
2022-10-01T11:35:37.125Z,100063.22
2022-10-01T11:38:18.658Z,100015.78
2022-10-01T11:40:51.351Z,100030.72
2022-10-01T11:43:26.505Z,100072.03
2022-10-01T11:46:00.190Z,100063.63
2022-10-01T11:48:33.608Z,100026.97
2022-10-01T11:51:09.204Z,100088.66
2022-10-01T11:53:45.350Z,100067.28
2022-10-01T11:56:39.647Z,100044.00
2022-10-01T11:59:17.747Z,100083.63
2022-10-01T12:02:15.907Z,100087.25
2022-10-01T12:04:58.024Z,100104.94
2022-10-01T12:07:43.049Z,100075.25
2022-10-01T12:10:38.728Z,100110.69
2022-10-01T12:13:32.517Z,100108.75
2022-10-01T12:16:10.446Z,100129.75
2022-10-01T12:18:55.109Z,100129.44
2022-10-01T12:21:32.415Z,100091.56
2022-10-01T12:24:06.990Z,99872.97
2022-10-01T12:26:53.027Z,99927.13
2022-10-01T12:29:42.284Z,100128.59
2022-10-01T12:32:22.573Z,100140.06
2022-10-01T12:35:02.603Z,100147.28
2022-10-01T12:37:50.924Z,100144.25
2022-10-01T12:40:44.328Z,100146.91
2022-10-01T12:43:13.942Z,100147.22
2022-10-01T12:45:56.034Z,100148.44
2022-10-01T12:48:32.095Z,100161.81
2022-10-01T12:51:13.785Z,100155.41
2022-10-01T12:53:58.258Z,100143.78
2022-10-01T12:56:50.923Z,100103.28
2022-10-01T12:59:29.216Z,100144.69
2022-10-01T13:02:12.842Z,100144.13
2022-10-01T13:05:09.591Z,100162.53
2022-10-01T13:07:46.840Z,100152.16
2022-10-01T13:10:29.957Z,100166.59
2022-10-01T13:13:07.741Z,100156.91
2022-10-01T13:15:41.061Z,100161.47
2022-10-01T13:18:19.574Z,100168.03
2022-10-01T13:21:25.098Z,100165.88
2022-10-01T13:24:03.190Z,100112.47
2022-10-01T13:26:37.289Z,100169.44
2022-10-01T13:29:14.212Z,100175.22
2022-10-01T13:32:04.536Z,100166.00
2022-10-01T13:34:40.217Z,100170.59
2022-10-01T13:37:29.626Z,100139.75
2022-10-01T13:39:57.536Z,100194.56
2022-10-01T13:42:30.777Z,100189.66
2022-10-01T13:45:03.225Z,100171.91
2022-10-01T13:47:29.672Z,100196.88
2022-10-01T13:50:00.702Z,100122.75
2022-10-01T13:52:27.974Z,100200.22
2022-10-01T13:54:56.309Z,100202.88
2022-10-01T13:57:29.004Z,100222.78
2022-10-01T14:00:18.334Z,100220.75
2022-10-01T14:02:59.425Z,100222.09
2022-10-01T14:05:38.944Z,100211.47
2022-10-01T14:08:12.180Z,100234.25
2022-10-01T14:11:04.167Z,100172.47
2022-10-01T14:13:49.952Z,100189.19
2022-10-01T14:16:17.196Z,100253.16
2022-10-01T14:18:47.658Z,100235.03
2022-10-01T14:21:36.591Z,100256.47
2022-10-01T14:24:33.625Z,100266.34
2022-10-01T14:27:22.817Z,100195.09
2022-10-01T14:30:07.290Z,100260.53
2022-10-01T14:33:06.174Z,100267.44
2022-10-01T14:35:38.400Z,100252.09
2022-10-01T14:38:12.681Z,100124.47
2022-10-01T14:40:43.521Z,100236.72
2022-10-01T14:43:15.756Z,100236.13
2022-10-01T14:46:03.042Z,100287.97
2022-10-01T14:48:32.296Z,100293.94
2022-10-01T14:51:05.472Z,100289.44
2022-10-01T14:53:42.989Z,100244.50
2022-10-01T14:56:14.060Z,100260.56
2022-10-01T14:58:58.027Z,100310.53
2022-10-01T15:01:25.288Z,100308.75
2022-10-01T15:03:52.827Z,100334.50
2022-10-01T15:06:23.218Z,100351.59
2022-10-01T15:08:51.969Z,100351.28
2022-10-01T15:11:22.861Z,100310.50
2022-10-01T15:13:52.820Z,100356.84
2022-10-01T15:16:24.853Z,100351.25
2022-10-01T15:18:53.374Z,100274.88
2022-10-01T15:21:23.018Z,100365.75
2022-10-01T15:23:49.903Z,100347.94
2022-10-01T15:26:22.466Z,100305.66
2022-10-01T15:28:49.369Z,100386.38
2022-10-01T15:31:16.751Z,100387.81
2022-10-01T15:33:43.558Z,100396.94
2022-10-01T15:36:18.354Z,100392.19
2022-10-01T15:38:48.786Z,100404.38
2022-10-01T15:41:31.570Z,100332.53
2022-10-01T15:44:02.537Z,100398.56
2022-10-01T15:46:33.202Z,100426.13
2022-10-01T15:49:20.281Z,100427.69
2022-10-01T15:52:21.540Z,100423.97
2022-10-01T15:54:56.370Z,100364.53
2022-10-01T15:57:25.629Z,100436.00
2022-10-01T15:59:54.060Z,100422.38
2022-10-01T16:02:26.022Z,100368.84
2022-10-01T16:04:55.888Z,100436.69
2022-10-01T16:07:29.412Z,100383.97
2022-10-01T16:10:00.478Z,100399.84
2022-10-01T16:12:28.401Z,100406.47
2022-10-01T16:15:05.028Z,100446.63
2022-10-01T16:17:38.118Z,100462.84
2022-10-01T16:20:16.517Z,100206.47
2022-10-01T16:22:43.443Z,100394.03
2022-10-01T16:25:19.495Z,100480.44
2022-10-01T16:28:20.151Z,100488.31
2022-10-01T16:30:51.201Z,100488.69
2022-10-01T16:33:17.605Z,100493.72
2022-10-01T16:35:47.793Z,100498.38
2022-10-01T16:38:14.784Z,100486.19
2022-10-01T16:40:43.679Z,100486.75
2022-10-01T16:43:19.788Z,100336.56
2022-10-01T16:45:46.294Z,100505.94
2022-10-01T16:54:53.917Z,100536.69
2022-10-01T17:00:15.236Z,100544.03
2022-10-01T17:05:35.639Z,100564.47
2022-10-01T17:10:59.819Z,100562.88
2022-10-01T17:16:19.462Z,100489.38
2022-10-01T17:21:42.085Z,100499.81
2022-10-01T17:27:02.959Z,100531.25
2022-10-01T17:32:22.224Z,100610.97
2022-10-01T17:37:41.028Z,100614.09
2022-10-01T17:42:59.285Z,100618.78
2022-10-01T17:48:18.888Z,100667.59
2022-10-01T17:50:48.002Z,100665.34
2022-10-01T17:53:15.079Z,100558.34
2022-10-01T17:55:42.277Z,100674.16
2022-10-01T17:58:08.673Z,100682.31
2022-10-01T18:00:35.337Z,100664.78
2022-10-01T18:03:01.671Z,100655.19
2022-10-01T18:05:28.102Z,100702.03
2022-10-01T18:07:54.425Z,100652.13
2022-10-01T18:10:20.757Z,100681.84
2022-10-01T18:21:18.354Z,100684.16
2022-10-01T18:23:44.752Z,100694.88
2022-10-01T18:26:11.387Z,100734.88
2022-10-01T18:32:39.249Z,100751.03
2022-10-01T18:35:25.013Z,100754.88
2022-10-01T18:37:55.844Z,100753.47
2022-10-01T18:40:27.408Z,100615.09
2022-10-01T18:43:15.778Z,100701.56
2022-10-01T18:46:00.785Z,100771.19
2022-10-01T18:48:37.146Z,100700.97
2022-10-01T18:51:09.063Z,100787.72
2022-10-01T18:53:56.197Z,100758.00
2022-10-01T18:56:36.261Z,100728.00
2022-10-01T18:59:24.291Z,100786.78
2022-10-01T19:02:14.138Z,100789.47
2022-10-01T19:05:15.141Z,100761.28
2022-10-01T19:08:08.915Z,100644.00
2022-10-01T19:10:50.350Z,100723.53
2022-10-01T19:13:29.311Z,100753.72
2022-10-01T19:16:03.719Z,100812.50
2022-10-01T19:18:52.276Z,100814.22
2022-10-01T19:21:28.298Z,100778.38
2022-10-01T19:24:27.238Z,100817.34
2022-10-01T19:27:14.493Z,100821.03
2022-10-01T19:30:01.636Z,100812.84
2022-10-01T19:33:08.772Z,100856.81
2022-10-01T19:35:50.461Z,100793.25
2022-10-01T19:38:33.695Z,100796.97
2022-10-01T19:41:08.588Z,100820.47
2022-10-01T19:43:50.694Z,100748.63
2022-10-01T19:46:31.855Z,100839.13
2022-10-01T19:49:14.663Z,100814.88
2022-10-01T19:51:46.460Z,100755.31
2022-10-01T19:54:22.638Z,100847.41
2022-10-01T19:56:53.758Z,100816.19
2022-10-01T19:59:21.878Z,100843.66
2022-10-01T20:02:03.504Z,100850.00
2022-10-01T20:04:51.765Z,100867.81
2022-10-01T20:07:24.521Z,100746.53
2022-10-01T20:10:05.978Z,100857.03
2022-10-01T20:12:45.383Z,100753.81
2022-10-01T20:15:21.697Z,100872.34
2022-10-01T20:18:04.990Z,100693.00
2022-10-01T20:21:05.558Z,100840.78
2022-10-01T20:27:31.024Z,100863.63
2022-10-01T20:30:10.680Z,100839.47
2022-10-01T20:32:49.181Z,100890.75
2022-10-01T20:35:27.805Z,100862.09
2022-10-01T20:38:04.240Z,100907.66
2022-10-01T20:40:40.000Z,100861.78
2022-10-01T20:43:15.946Z,100771.84
2022-10-01T20:45:45.515Z,100885.78
2022-10-01T20:48:27.567Z,100861.38
2022-10-01T20:51:01.412Z,100864.69
2022-10-01T20:53:53.485Z,100915.69
2022-10-01T20:56:37.940Z,100914.06
2022-10-01T20:59:18.103Z,100923.72
2022-10-01T21:02:02.178Z,100909.88
2022-10-01T21:04:45.573Z,100922.88
2022-10-01T21:07:36.643Z,100931.59
2022-10-01T21:10:39.654Z,100885.63
2022-10-01T21:13:19.768Z,100929.34
2022-10-01T21:16:04.867Z,100808.56
2022-10-01T21:19:05.427Z,100948.50
2022-10-01T21:21:35.727Z,100947.78
2022-10-01T21:24:23.922Z,100945.94
2022-10-01T21:27:20.852Z,100864.38
2022-10-01T21:29:50.435Z,100945.09
2022-10-01T21:33:01.938Z,100876.91
2022-10-01T21:35:50.006Z,100941.63
2022-10-01T21:38:36.929Z,100899.34
2022-10-01T21:41:24.491Z,100949.56
2022-10-01T21:44:30.841Z,100953.97
2022-10-01T21:47:25.213Z,100953.81
2022-10-01T21:50:06.579Z,100961.59
2022-10-01T21:52:56.135Z,100973.88
2022-10-01T21:55:40.694Z,100960.75
2022-10-01T21:58:49.722Z,100951.34
2022-10-01T22:01:30.525Z,100967.00
2022-10-01T22:04:17.425Z,100935.63
2022-10-01T22:09:55.407Z,100977.66
2022-10-01T22:12:28.098Z,100945.69
2022-10-01T22:14:57.071Z,100984.59
2022-10-01T22:17:36.413Z,100979.34
2022-10-01T22:20:05.648Z,100991.38
2022-10-01T22:22:44.170Z,100942.47
2022-10-01T22:25:15.071Z,101000.91
2022-10-01T22:28:03.370Z,101002.75
2022-10-01T22:30:44.249Z,100966.53
2022-10-01T22:33:19.817Z,101014.09
2022-10-01T22:36:57.790Z,101008.63
2022-10-01T22:39:35.063Z,100957.09
2022-10-01T22:42:55.590Z,100893.16
2022-10-01T22:45:35.610Z,101003.19
2022-10-01T22:48:25.958Z,101000.25
2022-10-01T22:51:37.669Z,101004.63
2022-10-01T22:54:36.444Z,100998.47
2022-10-01T22:57:43.700Z,100998.25
2022-10-01T23:00:15.960Z,101004.34
2022-10-01T23:04:10.177Z,100895.41
2022-10-01T23:06:13.095Z,100729.09
2022-10-01T23:09:07.441Z,101017.19
2022-10-01T23:15:20.164Z,101002.00
2022-10-01T23:18:36.036Z,101000.69
2022-10-01T23:21:50.881Z,100994.59
2022-10-01T23:24:48.498Z,100990.69
2022-10-01T23:27:45.218Z,100888.81
2022-10-01T23:33:54.117Z,100985.22
2022-10-01T23:36:43.572Z,100882.03
2022-10-01T23:39:34.623Z,100990.88
2022-10-01T23:42:25.446Z,100994.47
2022-10-01T23:45:33.232Z,100992.03
2022-10-01T23:48:29.554Z,100991.31
2022-10-01T23:51:40.565Z,101001.06
2022-10-01T23:54:27.355Z,101004.63
2022-10-01T23:57:19.029Z,100927.81
